sensor_id;sensor_type;location;lat;lon;timestamp;temperature;humidity
36444;DHT22;24692;45.642;13.806;2023-07-02T00:00:59;20.40;99.90
36444;DHT22;24692;45.642;13.806;2023-07-02T00:03:25;20.40;99.90
36444;DHT22;24692;45.642;13.806;2023-07-02T00:05:51;20.40;99.90
36444;DHT22;24692;45.642;13.806;2023-07-02T00:08:21;20.40;99.90
36444;DHT22;24692;45.642;13.806;2023-07-02T00:10:46;20.50;99.90
36444;DHT22;24692;45.642;13.806;2023-07-02T00:13:12;20.50;99.90
36444;DHT22;24692;45.642;13.806;2023-07-02T00:15:38;20.50;99.90
36444;DHT22;24692;45.642;13.806;2023-07-02T00:18:03;20.50;99.90
36444;DHT22;24692;45.642;13.806;2023-07-02T00:20:29;20.50;99.90
36444;DHT22;24692;45.642;13.806;2023-07-02T00:22:55;20.60;99.90
36444;DHT22;24692;45.642;13.806;2023-07-02T00:25:21;20.50;99.90
36444;DHT22;24692;45.642;13.806;2023-07-02T00:27:47;20.40;99.90
36444;DHT22;24692;45.642;13.806;2023-07-02T00:30:13;20.40;99.90
36444;DHT22;24692;45.642;13.806;2023-07-02T00:32:39;20.40;99.90
36444;DHT22;24692;45.642;13.806;2023-07-02T00:35:05;20.30;99.90
36444;DHT22;24692;45.642;13.806;2023-07-02T00:37:31;20.20;99.90
36444;DHT22;24692;45.642;13.806;2023-07-02T00:39:57;20.20;99.90
36444;DHT22;24692;45.642;13.806;2023-07-02T00:42:23;20.20;99.90
36444;DHT22;24692;45.642;13.806;2023-07-02T00:44:49;20.20;99.90
36444;DHT22;24692;45.642;13.806;2023-07-02T00:47:18;20.20;99.90
36444;DHT22;24692;45.642;13.806;2023-07-02T00:49:43;20.10;99.90
36444;DHT22;24692;45.642;13.806;2023-07-02T00:52:09;20.10;99.90
36444;DHT22;24692;45.642;13.806;2023-07-02T00:54:36;20.00;99.90
36444;DHT22;24692;45.642;13.806;2023-07-02T00:57:02;20.00;99.90
36444;DHT22;24692;45.642;13.806;2023-07-02T00:59:30;20.00;99.90
36444;DHT22;24692;45.642;13.806;2023-07-02T01:01:56;19.90;99.90
36444;DHT22;24692;45.642;13.806;2023-07-02T01:04:22;19.90;99.90
36444;DHT22;24692;45.642;13.806;2023-07-02T01:06:53;19.90;99.90
36444;DHT22;24692;45.642;13.806;2023-07-02T01:09:25;19.90;99.90
36444;DHT22;24692;45.642;13.806;2023-07-02T01:12:00;19.80;99.90
36444;DHT22;24692;45.642;13.806;2023-07-02T01:14:39;19.80;99.90
36444;DHT22;24692;45.642;13.806;2023-07-02T01:17:06;19.80;99.90
36444;DHT22;24692;45.642;13.806;2023-07-02T01:22:06;19.80;99.90
36444;DHT22;24692;45.642;13.806;2023-07-02T01:24:32;19.80;99.90
36444;DHT22;24692;45.642;13.806;2023-07-02T01:26:58;19.80;99.90
36444;DHT22;24692;45.642;13.806;2023-07-02T01:29:29;19.70;99.90
36444;DHT22;24692;45.642;13.806;2023-07-02T01:31:56;19.70;99.90
36444;DHT22;24692;45.642;13.806;2023-07-02T01:34:22;19.70;99.90
36444;DHT22;24692;45.642;13.806;2023-07-02T01:36:48;19.70;99.90
36444;DHT22;24692;45.642;13.806;2023-07-02T01:39:13;19.70;99.90
36444;DHT22;24692;45.642;13.806;2023-07-02T01:41:49;19.70;99.90
36444;DHT22;24692;45.642;13.806;2023-07-02T01:44:14;19.70;99.90
36444;DHT22;24692;45.642;13.806;2023-07-02T01:46:40;19.70;99.90
36444;DHT22;24692;45.642;13.806;2023-07-02T01:49:06;19.70;99.90
36444;DHT22;24692;45.642;13.806;2023-07-02T01:51:32;19.70;99.90
36444;DHT22;24692;45.642;13.806;2023-07-02T01:53:58;19.60;99.90
36444;DHT22;24692;45.642;13.806;2023-07-02T01:56:23;19.60;99.90
36444;DHT22;24692;45.642;13.806;2023-07-02T01:58:49;19.70;99.90
36444;DHT22;24692;45.642;13.806;2023-07-02T02:01:14;19.60;99.90
36444;DHT22;24692;45.642;13.806;2023-07-02T02:03:40;19.70;99.90
36444;DHT22;24692;45.642;13.806;2023-07-02T02:06:06;19.60;99.90
36444;DHT22;24692;45.642;13.806;2023-07-02T02:08:31;19.60;99.90
36444;DHT22;24692;45.642;13.806;2023-07-02T02:10:57;19.60;99.90
36444;DHT22;24692;45.642;13.806;2023-07-02T02:13:22;19.60;99.90
36444;DHT22;24692;45.642;13.806;2023-07-02T02:15:48;19.60;99.90
36444;DHT22;24692;45.642;13.806;2023-07-02T02:18:14;19.60;99.90
36444;DHT22;24692;45.642;13.806;2023-07-02T02:20:39;19.60;99.90
36444;DHT22;24692;45.642;13.806;2023-07-02T02:23:05;19.50;99.90
36444;DHT22;24692;45.642;13.806;2023-07-02T02:25:31;19.60;99.90
36444;DHT22;24692;45.642;13.806;2023-07-02T02:27:56;19.60;99.90
36444;DHT22;24692;45.642;13.806;2023-07-02T02:30:22;19.60;99.90
36444;DHT22;24692;45.642;13.806;2023-07-02T02:32:48;19.60;99.90
36444;DHT22;24692;45.642;13.806;2023-07-02T02:35:14;19.60;99.90
36444;DHT22;24692;45.642;13.806;2023-07-02T02:37:40;19.50;99.90
36444;DHT22;24692;45.642;13.806;2023-07-02T02:40:07;19.50;99.90
36444;DHT22;24692;45.642;13.806;2023-07-02T02:42:35;19.50;99.90
36444;DHT22;24692;45.642;13.806;2023-07-02T02:45:01;19.60;99.90
36444;DHT22;24692;45.642;13.806;2023-07-02T02:47:27;19.50;99.90
36444;DHT22;24692;45.642;13.806;2023-07-02T02:49:52;19.50;99.90
36444;DHT22;24692;45.642;13.806;2023-07-02T02:52:18;19.50;99.90
36444;DHT22;24692;45.642;13.806;2023-07-02T02:54:45;19.50;99.90
36444;DHT22;24692;45.642;13.806;2023-07-02T02:57:11;19.40;99.90
36444;DHT22;24692;45.642;13.806;2023-07-02T02:59:36;19.40;99.90
36444;DHT22;24692;45.642;13.806;2023-07-02T03:02:02;19.40;99.90
36444;DHT22;24692;45.642;13.806;2023-07-02T03:04:29;19.40;99.90
36444;DHT22;24692;45.642;13.806;2023-07-02T03:06:54;19.40;99.90
36444;DHT22;24692;45.642;13.806;2023-07-02T03:09:21;19.40;99.90
36444;DHT22;24692;45.642;13.806;2023-07-02T03:11:47;19.40;99.90
36444;DHT22;24692;45.642;13.806;2023-07-02T03:14:13;19.40;99.90
36444;DHT22;24692;45.642;13.806;2023-07-02T03:16:41;19.40;99.90
36444;DHT22;24692;45.642;13.806;2023-07-02T03:19:06;19.40;99.90
36444;DHT22;24692;45.642;13.806;2023-07-02T03:21:32;19.40;99.90
36444;DHT22;24692;45.642;13.806;2023-07-02T03:23:58;19.40;99.90
36444;DHT22;24692;45.642;13.806;2023-07-02T03:26:23;19.40;99.90
36444;DHT22;24692;45.642;13.806;2023-07-02T03:28:49;19.40;99.90
36444;DHT22;24692;45.642;13.806;2023-07-02T03:31:15;19.30;99.90
36444;DHT22;24692;45.642;13.806;2023-07-02T03:33:41;19.30;99.90
36444;DHT22;24692;45.642;13.806;2023-07-02T03:36:06;19.30;99.90
36444;DHT22;24692;45.642;13.806;2023-07-02T03:38:32;19.20;99.90
36444;DHT22;24692;45.642;13.806;2023-07-02T03:40:58;19.30;99.90
36444;DHT22;24692;45.642;13.806;2023-07-02T03:43:24;19.30;99.90
36444;DHT22;24692;45.642;13.806;2023-07-02T03:45:52;19.30;99.90
36444;DHT22;24692;45.642;13.806;2023-07-02T03:48:18;19.30;99.90
36444;DHT22;24692;45.642;13.806;2023-07-02T03:50:43;19.30;99.90
36444;DHT22;24692;45.642;13.806;2023-07-02T03:53:09;19.30;99.90
36444;DHT22;24692;45.642;13.806;2023-07-02T03:55:35;19.30;99.90
36444;DHT22;24692;45.642;13.806;2023-07-02T03:58:01;19.30;99.90
36444;DHT22;24692;45.642;13.806;2023-07-02T04:00:27;19.30;99.90
36444;DHT22;24692;45.642;13.806;2023-07-02T04:02:52;19.30;99.90
36444;DHT22;24692;45.642;13.806;2023-07-02T04:05:18;19.20;99.90
36444;DHT22;24692;45.642;13.806;2023-07-02T04:07:45;19.30;99.90
36444;DHT22;24692;45.642;13.806;2023-07-02T04:10:11;19.30;99.90
36444;DHT22;24692;45.642;13.806;2023-07-02T04:12:37;19.30;99.90
36444;DHT22;24692;45.642;13.806;2023-07-02T04:15:03;19.30;99.90
36444;DHT22;24692;45.642;13.806;2023-07-02T04:17:29;19.30;99.90
36444;DHT22;24692;45.642;13.806;2023-07-02T04:19:55;19.30;99.90
36444;DHT22;24692;45.642;13.806;2023-07-02T04:22:21;19.40;99.90
36444;DHT22;24692;45.642;13.806;2023-07-02T04:24:46;19.50;99.90
36444;DHT22;24692;45.642;13.806;2023-07-02T04:27:15;19.60;99.90
36444;DHT22;24692;45.642;13.806;2023-07-02T04:29:43;19.60;99.90
36444;DHT22;24692;45.642;13.806;2023-07-02T04:32:09;19.60;99.90
36444;DHT22;24692;45.642;13.806;2023-07-02T04:34:35;19.70;99.90
36444;DHT22;24692;45.642;13.806;2023-07-02T04:37:03;19.70;99.90
36444;DHT22;24692;45.642;13.806;2023-07-02T04:39:29;19.80;99.90
36444;DHT22;24692;45.642;13.806;2023-07-02T04:41:55;19.80;99.90
36444;DHT22;24692;45.642;13.806;2023-07-02T04:44:20;19.90;99.90
36444;DHT22;24692;45.642;13.806;2023-07-02T04:46:48;19.90;99.90
36444;DHT22;24692;45.642;13.806;2023-07-02T04:49:14;20.00;99.90
36444;DHT22;24692;45.642;13.806;2023-07-02T04:51:40;20.10;99.90
36444;DHT22;24692;45.642;13.806;2023-07-02T04:54:05;20.20;99.90
36444;DHT22;24692;45.642;13.806;2023-07-02T04:56:31;20.20;99.90
36444;DHT22;24692;45.642;13.806;2023-07-02T04:58:57;20.30;99.90
36444;DHT22;24692;45.642;13.806;2023-07-02T05:01:22;20.40;99.90
36444;DHT22;24692;45.642;13.806;2023-07-02T05:03:48;20.50;99.90
36444;DHT22;24692;45.642;13.806;2023-07-02T05:06:14;20.50;99.90
36444;DHT22;24692;45.642;13.806;2023-07-02T05:08:39;20.60;99.90
36444;DHT22;24692;45.642;13.806;2023-07-02T05:11:05;20.70;99.90
36444;DHT22;24692;45.642;13.806;2023-07-02T05:13:31;20.80;99.90
36444;DHT22;24692;45.642;13.806;2023-07-02T05:15:56;20.90;99.90
36444;DHT22;24692;45.642;13.806;2023-07-02T05:18:22;21.00;99.90
36444;DHT22;24692;45.642;13.806;2023-07-02T05:20:47;21.10;99.90
36444;DHT22;24692;45.642;13.806;2023-07-02T05:23:13;21.10;99.90
36444;DHT22;24692;45.642;13.806;2023-07-02T05:25:39;21.20;99.90
36444;DHT22;24692;45.642;13.806;2023-07-02T05:28:04;21.30;99.90
36444;DHT22;24692;45.642;13.806;2023-07-02T05:30:30;21.30;99.90
36444;DHT22;24692;45.642;13.806;2023-07-02T05:32:56;21.50;99.90
36444;DHT22;24692;45.642;13.806;2023-07-02T05:35:21;21.50;99.90
36444;DHT22;24692;45.642;13.806;2023-07-02T05:37:47;21.70;99.90
36444;DHT22;24692;45.642;13.806;2023-07-02T05:40:13;21.70;99.90
36444;DHT22;24692;45.642;13.806;2023-07-02T05:42:38;21.70;99.90
36444;DHT22;24692;45.642;13.806;2023-07-02T05:45:04;21.80;99.90
36444;DHT22;24692;45.642;13.806;2023-07-02T05:47:30;21.80;99.90
36444;DHT22;24692;45.642;13.806;2023-07-02T05:49:55;21.90;99.90
36444;DHT22;24692;45.642;13.806;2023-07-02T05:52:21;21.90;99.90
36444;DHT22;24692;45.642;13.806;2023-07-02T05:54:48;22.00;99.90
36444;DHT22;24692;45.642;13.806;2023-07-02T05:57:14;22.10;99.90
36444;DHT22;24692;45.642;13.806;2023-07-02T05:59:39;22.10;99.90
36444;DHT22;24692;45.642;13.806;2023-07-02T06:02:05;22.10;99.90
36444;DHT22;24692;45.642;13.806;2023-07-02T06:04:31;22.20;99.90
36444;DHT22;24692;45.642;13.806;2023-07-02T06:06:57;22.20;99.90
36444;DHT22;24692;45.642;13.806;2023-07-02T06:09:23;22.30;99.90
36444;DHT22;24692;45.642;13.806;2023-07-02T06:11:48;22.30;99.90
36444;DHT22;24692;45.642;13.806;2023-07-02T06:14:14;22.30;99.90
36444;DHT22;24692;45.642;13.806;2023-07-02T06:16:40;22.30;99.90
36444;DHT22;24692;45.642;13.806;2023-07-02T06:19:06;22.30;99.90
36444;DHT22;24692;45.642;13.806;2023-07-02T06:21:31;22.50;99.90
36444;DHT22;24692;45.642;13.806;2023-07-02T06:23:57;22.60;99.90
36444;DHT22;24692;45.642;13.806;2023-07-02T06:26:27;22.70;99.90
36444;DHT22;24692;45.642;13.806;2023-07-02T06:28:53;22.70;99.90
36444;DHT22;24692;45.642;13.806;2023-07-02T06:31:18;22.70;99.90
36444;DHT22;24692;45.642;13.806;2023-07-02T06:33:44;22.90;99.90
36444;DHT22;24692;45.642;13.806;2023-07-02T06:36:10;22.90;99.90
36444;DHT22;24692;45.642;13.806;2023-07-02T06:38:36;23.00;99.90
36444;DHT22;24692;45.642;13.806;2023-07-02T06:41:03;23.10;99.90
36444;DHT22;24692;45.642;13.806;2023-07-02T06:43:28;23.20;99.90
36444;DHT22;24692;45.642;13.806;2023-07-02T06:45:54;23.20;99.90
36444;DHT22;24692;45.642;13.806;2023-07-02T06:48:20;23.30;99.90
36444;DHT22;24692;45.642;13.806;2023-07-02T06:50:47;23.30;99.90
36444;DHT22;24692;45.642;13.806;2023-07-02T06:53:13;23.40;99.90
36444;DHT22;24692;45.642;13.806;2023-07-02T06:55:39;23.50;99.90
36444;DHT22;24692;45.642;13.806;2023-07-02T06:58:08;23.50;99.90
36444;DHT22;24692;45.642;13.806;2023-07-02T07:00:34;23.60;99.90
36444;DHT22;24692;45.642;13.806;2023-07-02T07:03:03;23.60;99.90
36444;DHT22;24692;45.642;13.806;2023-07-02T07:05:32;23.60;99.90
36444;DHT22;24692;45.642;13.806;2023-07-02T07:07:59;23.70;99.90
36444;DHT22;24692;45.642;13.806;2023-07-02T07:10:26;23.60;99.90
36444;DHT22;24692;45.642;13.806;2023-07-02T07:12:52;23.80;99.90
36444;DHT22;24692;45.642;13.806;2023-07-02T07:15:18;23.90;99.90
36444;DHT22;24692;45.642;13.806;2023-07-02T07:17:43;24.00;99.90
36444;DHT22;24692;45.642;13.806;2023-07-02T07:20:09;24.00;99.90
36444;DHT22;24692;45.642;13.806;2023-07-02T07:22:35;24.20;99.90
36444;DHT22;24692;45.642;13.806;2023-07-02T07:25:01;24.20;99.90
36444;DHT22;24692;45.642;13.806;2023-07-02T07:27:26;24.40;99.90
36444;DHT22;24692;45.642;13.806;2023-07-02T07:29:52;24.40;99.90
36444;DHT22;24692;45.642;13.806;2023-07-02T07:32:19;24.50;99.90
36444;DHT22;24692;45.642;13.806;2023-07-02T07:34:45;24.60;99.90
36444;DHT22;24692;45.642;13.806;2023-07-02T07:37:11;24.60;99.90
36444;DHT22;24692;45.642;13.806;2023-07-02T07:39:36;24.70;99.90
36444;DHT22;24692;45.642;13.806;2023-07-02T07:42:04;24.70;99.90
36444;DHT22;24692;45.642;13.806;2023-07-02T07:44:29;24.80;99.90
36444;DHT22;24692;45.642;13.806;2023-07-02T07:46:56;24.70;99.90
36444;DHT22;24692;45.642;13.806;2023-07-02T07:49:22;24.70;99.90
36444;DHT22;24692;45.642;13.806;2023-07-02T07:51:47;24.60;99.90
36444;DHT22;24692;45.642;13.806;2023-07-02T07:54:14;24.60;99.90
36444;DHT22;24692;45.642;13.806;2023-07-02T07:56:40;24.50;99.90
36444;DHT22;24692;45.642;13.806;2023-07-02T07:59:05;24.50;99.90
36444;DHT22;24692;45.642;13.806;2023-07-02T08:01:31;24.40;99.90
36444;DHT22;24692;45.642;13.806;2023-07-02T08:03:57;24.40;99.90
36444;DHT22;24692;45.642;13.806;2023-07-02T08:06:22;24.50;99.90
36444;DHT22;24692;45.642;13.806;2023-07-02T08:08:48;24.60;99.90
36444;DHT22;24692;45.642;13.806;2023-07-02T08:11:14;24.60;99.90
36444;DHT22;24692;45.642;13.806;2023-07-02T08:13:39;24.50;99.90
36444;DHT22;24692;45.642;13.806;2023-07-02T08:16:05;24.60;99.90
36444;DHT22;24692;45.642;13.806;2023-07-02T08:18:30;24.70;99.90
36444;DHT22;24692;45.642;13.806;2023-07-02T08:20:56;24.90;99.90
36444;DHT22;24692;45.642;13.806;2023-07-02T08:23:22;24.90;99.90
36444;DHT22;24692;45.642;13.806;2023-07-02T08:25:47;24.70;99.90
36444;DHT22;24692;45.642;13.806;2023-07-02T08:28:13;24.70;99.90
36444;DHT22;24692;45.642;13.806;2023-07-02T08:30:39;24.70;99.90
36444;DHT22;24692;45.642;13.806;2023-07-02T08:33:04;24.90;99.90
36444;DHT22;24692;45.642;13.806;2023-07-02T08:35:30;25.00;99.90
36444;DHT22;24692;45.642;13.806;2023-07-02T08:37:56;25.30;99.90
36444;DHT22;24692;45.642;13.806;2023-07-02T08:40:22;25.30;99.90
36444;DHT22;24692;45.642;13.806;2023-07-02T08:42:48;25.80;99.90
36444;DHT22;24692;45.642;13.806;2023-07-02T08:45:15;26.30;99.90
36444;DHT22;24692;45.642;13.806;2023-07-02T08:47:42;26.70;99.90
36444;DHT22;24692;45.642;13.806;2023-07-02T08:50:08;27.10;99.90
36444;DHT22;24692;45.642;13.806;2023-07-02T08:52:34;27.20;99.90
36444;DHT22;24692;45.642;13.806;2023-07-02T08:55:00;28.00;99.90
36444;DHT22;24692;45.642;13.806;2023-07-02T08:57:25;28.50;99.90
36444;DHT22;24692;45.642;13.806;2023-07-02T08:59:51;28.60;99.90
36444;DHT22;24692;45.642;13.806;2023-07-02T09:02:17;28.60;99.90
36444;DHT22;24692;45.642;13.806;2023-07-02T09:04:43;28.90;99.90
36444;DHT22;24692;45.642;13.806;2023-07-02T09:07:10;29.30;99.90
36444;DHT22;24692;45.642;13.806;2023-07-02T09:09:49;29.00;99.90
36444;DHT22;24692;45.642;13.806;2023-07-02T09:12:29;29.00;99.90
36444;DHT22;24692;45.642;13.806;2023-07-02T09:17:21;29.00;99.90
36444;DHT22;24692;45.642;13.806;2023-07-02T09:19:51;29.30;99.90
36444;DHT22;24692;45.642;13.806;2023-07-02T09:22:17;29.40;99.90
36444;DHT22;24692;45.642;13.806;2023-07-02T09:24:54;29.40;99.90
36444;DHT22;24692;45.642;13.806;2023-07-02T09:27:21;29.00;99.90
36444;DHT22;24692;45.642;13.806;2023-07-02T09:29:51;28.70;99.90
36444;DHT22;24692;45.642;13.806;2023-07-02T09:32:26;28.30;99.90
36444;DHT22;24692;45.642;13.806;2023-07-02T09:34:54;28.50;99.90
36444;DHT22;24692;45.642;13.806;2023-07-02T09:37:20;28.70;99.90
36444;DHT22;24692;45.642;13.806;2023-07-02T09:39:50;29.20;99.90
36444;DHT22;24692;45.642;13.806;2023-07-02T09:42:17;28.50;99.90
36444;DHT22;24692;45.642;13.806;2023-07-02T09:44:45;28.70;99.90
36444;DHT22;24692;45.642;13.806;2023-07-02T09:47:12;28.80;99.90
36444;DHT22;24692;45.642;13.806;2023-07-02T09:49:45;28.80;99.90
36444;DHT22;24692;45.642;13.806;2023-07-02T09:52:14;28.90;99.90
36444;DHT22;24692;45.642;13.806;2023-07-02T09:54:41;29.00;99.90
36444;DHT22;24692;45.642;13.806;2023-07-02T09:57:07;29.80;99.90
36444;DHT22;24692;45.642;13.806;2023-07-02T09:59:33;30.10;99.90
36444;DHT22;24692;45.642;13.806;2023-07-02T10:01:59;29.60;99.90
36444;DHT22;24692;45.642;13.806;2023-07-02T10:04:25;29.30;99.90
36444;DHT22;24692;45.642;13.806;2023-07-02T10:06:53;29.50;99.90
36444;DHT22;24692;45.642;13.806;2023-07-02T10:09:20;30.20;99.90
36444;DHT22;24692;45.642;13.806;2023-07-02T10:11:46;30.00;99.90
36444;DHT22;24692;45.642;13.806;2023-07-02T10:14:12;30.00;99.90
36444;DHT22;24692;45.642;13.806;2023-07-02T10:16:55;30.80;99.90
36444;DHT22;24692;45.642;13.806;2023-07-02T10:19:21;30.90;99.90
36444;DHT22;24692;45.642;13.806;2023-07-02T10:21:48;30.40;99.90
36444;DHT22;24692;45.642;13.806;2023-07-02T10:24:25;30.30;99.90
36444;DHT22;24692;45.642;13.806;2023-07-02T10:27:01;30.10;99.90
36444;DHT22;24692;45.642;13.806;2023-07-02T10:29:29;30.30;99.90
36444;DHT22;24692;45.642;13.806;2023-07-02T10:31:57;30.10;99.90
36444;DHT22;24692;45.642;13.806;2023-07-02T10:34:35;30.30;99.90
36444;DHT22;24692;45.642;13.806;2023-07-02T10:37:02;30.60;99.90
36444;DHT22;24692;45.642;13.806;2023-07-02T10:39:31;30.30;99.90
36444;DHT22;24692;45.642;13.806;2023-07-02T10:42:10;30.40;99.90
36444;DHT22;24692;45.642;13.806;2023-07-02T10:44:47;30.60;99.90
36444;DHT22;24692;45.642;13.806;2023-07-02T10:47:13;31.00;99.90
36444;DHT22;24692;45.642;13.806;2023-07-02T10:49:39;31.00;99.90
36444;DHT22;24692;45.642;13.806;2023-07-02T10:52:05;31.00;99.90
36444;DHT22;24692;45.642;13.806;2023-07-02T10:54:43;30.70;99.90
36444;DHT22;24692;45.642;13.806;2023-07-02T10:57:10;31.20;99.90
36444;DHT22;24692;45.642;13.806;2023-07-02T10:59:37;30.90;99.90
36444;DHT22;24692;45.642;13.806;2023-07-02T11:02:03;31.10;99.90
36444;DHT22;24692;45.642;13.806;2023-07-02T11:04:33;31.50;99.90
36444;DHT22;24692;45.642;13.806;2023-07-02T11:06:59;31.30;99.90
36444;DHT22;24692;45.642;13.806;2023-07-02T11:09:25;31.00;99.90
36444;DHT22;24692;45.642;13.806;2023-07-02T11:11:59;31.20;99.90
36444;DHT22;24692;45.642;13.806;2023-07-02T11:14:35;31.90;99.90
36444;DHT22;24692;45.642;13.806;2023-07-02T11:17:05;31.60;99.90
36444;DHT22;24692;45.642;13.806;2023-07-02T11:19:32;31.20;99.90
36444;DHT22;24692;45.642;13.806;2023-07-02T11:21:59;31.50;99.90
36444;DHT22;24692;45.642;13.806;2023-07-02T11:24:37;31.60;99.90
36444;DHT22;24692;45.642;13.806;2023-07-02T11:27:05;31.40;99.90
36444;DHT22;24692;45.642;13.806;2023-07-02T11:29:34;31.40;99.90
36444;DHT22;24692;45.642;13.806;2023-07-02T11:32:10;31.80;99.90
36444;DHT22;24692;45.642;13.806;2023-07-02T11:34:37;31.70;99.90
36444;DHT22;24692;45.642;13.806;2023-07-02T11:37:03;31.90;99.90
36444;DHT22;24692;45.642;13.806;2023-07-02T11:39:29;32.40;99.90
36444;DHT22;24692;45.642;13.806;2023-07-02T11:41:55;31.80;99.90
36444;DHT22;24692;45.642;13.806;2023-07-02T11:44:21;32.10;99.90
36444;DHT22;24692;45.642;13.806;2023-07-02T11:46:47;32.80;99.90
36444;DHT22;24692;45.642;13.806;2023-07-02T11:49:13;33.10;99.90
36444;DHT22;24692;45.642;13.806;2023-07-02T11:51:41;33.50;99.90
36444;DHT22;24692;45.642;13.806;2023-07-02T11:54:07;32.40;99.90
36444;DHT22;24692;45.642;13.806;2023-07-02T11:56:33;32.40;99.90
36444;DHT22;24692;45.642;13.806;2023-07-02T11:58:59;32.90;99.90
36444;DHT22;24692;45.642;13.806;2023-07-02T12:01:25;32.90;99.90
36444;DHT22;24692;45.642;13.806;2023-07-02T12:03:51;32.70;99.90
36444;DHT22;24692;45.642;13.806;2023-07-02T12:06:16;33.00;99.90
36444;DHT22;24692;45.642;13.806;2023-07-02T12:08:42;32.80;99.90
36444;DHT22;24692;45.642;13.806;2023-07-02T12:11:08;33.20;99.90
36444;DHT22;24692;45.642;13.806;2023-07-02T12:13:34;32.90;99.90
36444;DHT22;24692;45.642;13.806;2023-07-02T12:15:59;32.30;99.90
36444;DHT22;24692;45.642;13.806;2023-07-02T12:18:25;32.00;99.90
36444;DHT22;24692;45.642;13.806;2023-07-02T12:20:51;32.10;99.90
36444;DHT22;24692;45.642;13.806;2023-07-02T12:23:17;32.70;99.90
36444;DHT22;24692;45.642;13.806;2023-07-02T12:25:42;33.50;99.90
36444;DHT22;24692;45.642;13.806;2023-07-02T12:28:08;33.80;99.90
36444;DHT22;24692;45.642;13.806;2023-07-02T12:30:33;33.90;99.90
36444;DHT22;24692;45.642;13.806;2023-07-02T12:32:59;34.00;99.90
36444;DHT22;24692;45.642;13.806;2023-07-02T12:35:25;33.90;99.90
36444;DHT22;24692;45.642;13.806;2023-07-02T12:37:52;33.90;99.90
36444;DHT22;24692;45.642;13.806;2023-07-02T12:40:19;34.20;99.90
36444;DHT22;24692;45.642;13.806;2023-07-02T12:42:46;34.50;99.90
36444;DHT22;24692;45.642;13.806;2023-07-02T12:45:13;34.40;99.90
36444;DHT22;24692;45.642;13.806;2023-07-02T12:47:39;34.20;99.90
36444;DHT22;24692;45.642;13.806;2023-07-02T12:50:06;33.80;99.90
36444;DHT22;24692;45.642;13.806;2023-07-02T12:52:32;34.00;99.90
36444;DHT22;24692;45.642;13.806;2023-07-02T12:54:58;34.10;99.90
36444;DHT22;24692;45.642;13.806;2023-07-02T12:57:24;33.60;99.90
36444;DHT22;24692;45.642;13.806;2023-07-02T12:59:52;33.90;99.90
36444;DHT22;24692;45.642;13.806;2023-07-02T13:02:18;33.20;99.90
36444;DHT22;24692;45.642;13.806;2023-07-02T13:04:44;33.70;99.90
36444;DHT22;24692;45.642;13.806;2023-07-02T13:07:09;33.60;99.90
36444;DHT22;24692;45.642;13.806;2023-07-02T13:09:35;33.70;99.90
36444;DHT22;24692;45.642;13.806;2023-07-02T13:12:01;34.10;99.90
36444;DHT22;24692;45.642;13.806;2023-07-02T13:14:26;33.50;99.90
36444;DHT22;24692;45.642;13.806;2023-07-02T13:16:52;34.20;99.90
36444;DHT22;24692;45.642;13.806;2023-07-02T13:19:18;34.40;99.90
36444;DHT22;24692;45.642;13.806;2023-07-02T13:21:43;34.50;99.90
36444;DHT22;24692;45.642;13.806;2023-07-02T13:24:11;34.30;99.90
36444;DHT22;24692;45.642;13.806;2023-07-02T13:26:37;34.00;99.90
36444;DHT22;24692;45.642;13.806;2023-07-02T13:29:03;33.70;99.90
36444;DHT22;24692;45.642;13.806;2023-07-02T13:31:28;34.00;99.90
36444;DHT22;24692;45.642;13.806;2023-07-02T13:33:54;34.10;99.90
36444;DHT22;24692;45.642;13.806;2023-07-02T13:36:20;33.60;99.90
36444;DHT22;24692;45.642;13.806;2023-07-02T13:38:45;34.10;99.90
36444;DHT22;24692;45.642;13.806;2023-07-02T13:41:11;34.30;99.90
36444;DHT22;24692;45.642;13.806;2023-07-02T13:43:37;34.40;99.90
36444;DHT22;24692;45.642;13.806;2023-07-02T13:46:02;34.10;99.90
36444;DHT22;24692;45.642;13.806;2023-07-02T13:48:28;34.10;99.90
36444;DHT22;24692;45.642;13.806;2023-07-02T13:50:54;34.20;99.90
36444;DHT22;24692;45.642;13.806;2023-07-02T13:53:20;34.20;99.90
36444;DHT22;24692;45.642;13.806;2023-07-02T13:55:46;34.20;99.90
36444;DHT22;24692;45.642;13.806;2023-07-02T13:58:11;34.20;99.90
36444;DHT22;24692;45.642;13.806;2023-07-02T14:00:37;34.00;99.90
36444;DHT22;24692;45.642;13.806;2023-07-02T14:03:03;34.00;99.90
36444;DHT22;24692;45.642;13.806;2023-07-02T14:05:29;34.00;99.90
36444;DHT22;24692;45.642;13.806;2023-07-02T14:07:55;34.00;99.90
36444;DHT22;24692;45.642;13.806;2023-07-02T14:10:20;33.90;99.90
36444;DHT22;24692;45.642;13.806;2023-07-02T14:12:46;34.20;99.90
36444;DHT22;24692;45.642;13.806;2023-07-02T14:15:12;34.10;99.90
36444;DHT22;24692;45.642;13.806;2023-07-02T14:17:38;34.00;99.90
36444;DHT22;24692;45.642;13.806;2023-07-02T14:20:06;34.00;99.90
36444;DHT22;24692;45.642;13.806;2023-07-02T14:22:32;33.90;99.90
36444;DHT22;24692;45.642;13.806;2023-07-02T14:24:58;33.90;99.90
36444;DHT22;24692;45.642;13.806;2023-07-02T14:27:23;34.20;99.90
36444;DHT22;24692;45.642;13.806;2023-07-02T14:29:49;34.10;99.90
36444;DHT22;24692;45.642;13.806;2023-07-02T14:32:16;34.20;99.90
36444;DHT22;24692;45.642;13.806;2023-07-02T14:34:42;34.00;99.90
36444;DHT22;24692;45.642;13.806;2023-07-02T14:37:07;34.10;99.90
36444;DHT22;24692;45.642;13.806;2023-07-02T14:39:33;33.40;99.90
36444;DHT22;24692;45.642;13.806;2023-07-02T14:42:00;33.00;99.90
36444;DHT22;24692;45.642;13.806;2023-07-02T14:44:25;33.20;99.90
36444;DHT22;24692;45.642;13.806;2023-07-02T14:46:51;33.50;99.90
36444;DHT22;24692;45.642;13.806;2023-07-02T14:49:17;33.70;99.90
36444;DHT22;24692;45.642;13.806;2023-07-02T14:51:43;33.80;99.90
36444;DHT22;24692;45.642;13.806;2023-07-02T14:54:09;33.80;99.90
36444;DHT22;24692;45.642;13.806;2023-07-02T14:56:35;34.00;99.90
36444;DHT22;24692;45.642;13.806;2023-07-02T14:59:05;33.00;99.90
36444;DHT22;24692;45.642;13.806;2023-07-02T15:01:32;32.90;99.90
36444;DHT22;24692;45.642;13.806;2023-07-02T15:03:58;32.60;99.90
36444;DHT22;24692;45.642;13.806;2023-07-02T15:06:25;32.90;99.90
36444;DHT22;24692;45.642;13.806;2023-07-02T15:08:51;32.60;99.90
36444;DHT22;24692;45.642;13.806;2023-07-02T15:11:17;32.10;99.90
36444;DHT22;24692;45.642;13.806;2023-07-02T15:13:43;32.30;99.90
36444;DHT22;24692;45.642;13.806;2023-07-02T15:16:10;31.70;99.90